createdAt,value
2018-06-21T00:01:15.362Z,8.90
2018-06-21T00:03:43.693Z,8.63
2018-06-21T00:06:11.906Z,8.50
2018-06-21T00:08:40.021Z,8.70
2018-06-21T00:11:08.000Z,8.80
2018-06-21T00:13:36.192Z,9.10
2018-06-21T00:16:04.406Z,8.70
2018-06-21T00:18:32.857Z,8.90
2018-06-21T00:21:01.110Z,9.00
2018-06-21T00:23:29.397Z,9.05
2018-06-21T00:25:58.306Z,8.80
2018-06-21T00:28:26.811Z,8.95
2018-06-21T00:30:55.090Z,9.08
2018-06-21T00:33:23.725Z,9.15
2018-06-21T00:35:52.127Z,9.63
2018-06-21T00:38:20.595Z,9.45
2018-06-21T00:40:49.007Z,9.00
2018-06-21T00:43:17.825Z,9.28
2018-06-21T00:45:45.810Z,9.20
2018-06-21T00:48:13.903Z,9.75
2018-06-21T00:50:42.320Z,8.93
2018-06-21T00:53:10.684Z,9.20
2018-06-21T00:55:49.945Z,9.53
2018-06-21T00:58:18.311Z,8.80
2018-06-21T01:00:46.743Z,9.65
2018-06-21T01:03:14.829Z,9.27
2018-06-21T01:05:42.833Z,9.10
2018-06-21T01:08:11.002Z,9.10
2018-06-21T01:10:39.392Z,9.98
2018-06-21T01:13:07.724Z,9.80
2018-06-21T01:15:36.015Z,9.80
2018-06-21T01:18:04.395Z,9.90
2018-06-21T01:20:32.702Z,9.35
2018-06-21T01:23:00.777Z,10.13
2018-06-21T01:25:29.090Z,9.70
2018-06-21T01:27:57.401Z,9.80
2018-06-21T01:30:25.781Z,9.60
2018-06-21T01:32:54.282Z,10.20
2018-06-21T01:35:22.675Z,9.90
2018-06-21T01:37:51.199Z,9.70
2018-06-21T01:40:19.594Z,9.90
2018-06-21T01:42:47.529Z,9.70
2018-06-21T01:45:15.575Z,10.05
2018-06-21T01:47:44.224Z,10.38
2018-06-21T01:50:12.488Z,10.50
2018-06-21T01:52:40.865Z,11.00
2018-06-21T01:55:09.055Z,10.90
2018-06-21T01:57:38.181Z,11.08
2018-06-21T02:00:06.371Z,10.93
2018-06-21T02:08:21.280Z,9.98
2018-06-21T02:10:49.700Z,10.25
2018-06-21T02:13:18.120Z,10.53
2018-06-21T02:15:46.493Z,10.15
2018-06-21T02:18:14.598Z,10.82
2018-06-21T02:20:43.081Z,10.58
2018-06-21T02:23:11.710Z,10.28
2018-06-21T02:25:40.093Z,9.80
2018-06-21T02:28:08.090Z,9.78
2018-06-21T02:30:36.699Z,9.60
2018-06-21T02:33:05.199Z,10.28
2018-06-21T02:35:33.740Z,10.35
2018-06-21T02:38:02.303Z,9.70
2018-06-21T02:40:30.944Z,9.55
2018-06-21T02:42:59.373Z,9.60
2018-06-21T02:45:27.488Z,9.70
2018-06-21T02:47:55.798Z,9.30
2018-06-21T02:50:24.176Z,10.10
2018-06-21T02:52:52.827Z,9.80
2018-06-21T02:55:21.135Z,9.40
2018-06-21T02:57:49.413Z,9.78
2018-06-21T03:00:17.793Z,10.30
2018-06-21T03:02:46.340Z,9.95
2018-06-21T03:05:14.589Z,9.80
2018-06-21T03:07:42.751Z,10.25
2018-06-21T03:10:11.158Z,10.20
2018-06-21T03:12:40.170Z,10.75
2018-06-21T03:15:09.993Z,9.70
2018-06-21T03:17:38.250Z,10.20
2018-06-21T03:20:06.525Z,10.38
2018-06-21T03:23:22.568Z,9.93
2018-06-21T03:25:50.983Z,10.00
2018-06-21T03:28:19.344Z,10.20
2018-06-21T03:30:47.652Z,10.23
2018-06-21T03:33:15.790Z,10.80
2018-06-21T03:35:44.621Z,10.05
2018-06-21T03:38:14.294Z,10.13
2018-06-21T03:40:42.697Z,10.88
2018-06-21T03:43:10.985Z,10.63
2018-06-21T03:45:39.191Z,10.90
2018-06-21T03:48:07.185Z,10.53
2018-06-21T03:50:35.574Z,11.28
2018-06-21T03:53:03.666Z,10.78
2018-06-21T03:55:31.964Z,10.32
2018-06-21T03:57:59.943Z,10.58
2018-06-21T04:00:28.045Z,9.50
2018-06-21T04:02:56.346Z,8.78
2018-06-21T04:05:24.970Z,9.30
2018-06-21T04:07:53.880Z,8.83
2018-06-21T04:10:22.083Z,8.98
2018-06-21T04:12:50.607Z,8.95
2018-06-21T04:15:18.775Z,8.38
2018-06-21T04:17:47.150Z,8.40
2018-06-21T04:20:15.438Z,7.73
2018-06-21T04:22:43.667Z,7.55
2018-06-21T04:25:11.725Z,8.20
2018-06-21T04:27:39.863Z,7.72
2018-06-21T04:30:08.253Z,7.40
2018-06-21T04:32:36.953Z,7.78
2018-06-21T04:35:05.192Z,6.80
2018-06-21T04:37:33.542Z,7.70
2018-06-21T04:40:01.828Z,7.62
2018-06-21T04:42:30.239Z,7.80
2018-06-21T04:44:58.634Z,7.80
2018-06-21T04:47:27.017Z,7.20
2018-06-21T04:49:55.493Z,7.55
2018-06-21T04:52:23.812Z,7.65
2018-06-21T04:54:52.346Z,7.00
2018-06-21T04:57:20.755Z,7.00
2018-06-21T04:59:49.119Z,6.50
2018-06-21T05:02:17.306Z,9.15
2018-06-21T05:04:45.508Z,6.80
2018-06-21T05:07:14.513Z,6.80
2018-06-21T05:09:42.962Z,6.00
2018-06-21T05:12:11.342Z,6.12
2018-06-21T05:14:39.438Z,5.42
2018-06-21T05:17:08.254Z,6.00
2018-06-21T05:19:36.626Z,5.90
2018-06-21T05:22:05.050Z,6.30
2018-06-21T05:24:33.348Z,5.90
2018-06-21T05:27:01.763Z,5.90
2018-06-21T05:29:30.523Z,6.12
2018-06-21T05:31:58.866Z,6.00
2018-06-21T05:34:27.157Z,5.50
2018-06-21T05:36:55.425Z,6.33
2018-06-21T05:39:23.635Z,6.00
2018-06-21T05:41:51.517Z,6.03
2018-06-21T05:44:19.961Z,5.90
2018-06-21T05:46:48.194Z,5.90
2018-06-21T05:49:16.224Z,5.40
2018-06-21T05:51:44.495Z,6.00
2018-06-21T05:54:12.899Z,5.87
2018-06-21T05:56:41.527Z,5.30
2018-06-21T05:59:10.034Z,5.90
2018-06-21T06:01:38.473Z,5.80
2018-06-21T06:04:06.900Z,5.50
2018-06-21T06:06:35.302Z,6.00
2018-06-21T06:09:05.761Z,6.00
2018-06-21T06:11:33.643Z,6.00
2018-06-21T06:14:01.625Z,5.95
2018-06-21T06:16:29.641Z,6.03
2018-06-21T06:18:57.923Z,5.70
2018-06-21T06:21:26.352Z,5.50
2018-06-21T06:23:54.762Z,5.30
2018-06-21T06:26:24.029Z,5.50
2018-06-21T06:28:52.523Z,5.47
2018-06-21T06:31:20.943Z,5.00
2018-06-21T06:33:49.042Z,4.80
2018-06-21T06:36:17.037Z,7.00
2018-06-21T06:38:45.131Z,4.90
2018-06-21T06:41:13.534Z,4.90
2018-06-21T06:43:42.698Z,5.30
2018-06-21T06:46:11.148Z,4.92
2018-06-21T06:50:25.679Z,5.23
2018-06-21T06:52:53.779Z,5.43
2018-06-21T06:55:22.397Z,4.80
2018-06-21T06:57:50.381Z,5.67
2018-06-21T07:00:18.774Z,5.50
2018-06-21T07:02:46.986Z,5.37
2018-06-21T07:05:15.172Z,4.70
2018-06-21T07:07:43.362Z,5.07
2018-06-21T07:10:11.661Z,5.30
2018-06-21T07:12:40.080Z,4.57
2018-06-21T07:15:08.622Z,5.20
2018-06-21T07:17:36.912Z,5.25
2018-06-21T07:20:05.439Z,5.28
2018-06-21T07:22:33.908Z,5.70
2018-06-21T07:25:02.273Z,5.95
2018-06-21T07:27:30.481Z,5.97
2018-06-21T07:29:58.732Z,6.00
2018-06-21T07:32:26.868Z,6.53
2018-06-21T07:34:55.164Z,5.75
2018-06-21T07:37:24.071Z,5.60
2018-06-21T07:39:52.985Z,5.97
2018-06-21T07:42:21.283Z,5.78
2018-06-21T07:44:49.900Z,7.37
2018-06-21T07:47:18.282Z,5.35
2018-06-21T07:49:46.280Z,5.35
2018-06-21T07:52:14.678Z,5.58
2018-06-21T07:54:43.048Z,4.87
2018-06-21T07:57:11.586Z,4.62
2018-06-21T07:59:39.900Z,5.00
2018-06-21T08:02:07.953Z,5.33
2018-06-21T08:04:36.249Z,5.40
2018-06-21T08:07:04.358Z,4.78
2018-06-21T08:09:32.542Z,4.80
2018-06-21T08:12:00.524Z,4.50
2018-06-21T08:14:29.046Z,4.33
2018-06-21T08:16:57.452Z,4.70
2018-06-21T08:19:25.850Z,7.20
2018-06-21T08:21:54.127Z,5.77
2018-06-21T08:24:22.221Z,5.15
2018-06-21T08:26:51.173Z,4.70
2018-06-21T08:29:19.463Z,5.80
2018-06-21T08:31:48.443Z,6.00
2018-06-21T08:34:16.570Z,5.53
2018-06-21T08:36:44.709Z,5.40
2018-06-21T08:39:12.941Z,5.80
2018-06-21T08:41:41.241Z,7.30
2018-06-21T08:44:09.509Z,6.05
2018-06-21T08:46:37.944Z,5.90
2018-06-21T08:49:06.098Z,5.78
2018-06-21T08:51:34.252Z,5.60
2018-06-21T08:54:03.012Z,5.37
2018-06-21T08:56:31.431Z,5.50
2018-06-21T08:58:59.724Z,5.40
2018-06-21T09:01:27.926Z,5.25
2018-06-21T09:04:58.609Z,5.10
2018-06-21T09:07:26.907Z,5.05
2018-06-21T09:09:55.217Z,4.85
2018-06-21T09:12:24.284Z,5.30
2018-06-21T09:14:52.599Z,5.60
2018-06-21T09:17:20.798Z,4.90
2018-06-21T09:19:49.103Z,4.30
2018-06-21T09:22:17.380Z,4.53
2018-06-21T09:24:46.231Z,4.80
2018-06-21T09:27:14.345Z,4.33
2018-06-21T09:29:42.492Z,4.70
2018-06-21T09:32:10.574Z,5.10
2018-06-21T09:34:38.876Z,4.67
2018-06-21T09:37:07.050Z,4.92
2018-06-21T09:39:40.781Z,9.88
2018-06-21T09:42:14.473Z,4.80
2018-06-21T09:44:48.407Z,4.85
2018-06-21T09:47:22.103Z,5.90
2018-06-21T09:49:50.557Z,4.40
2018-06-21T09:52:18.544Z,4.47
2018-06-21T09:54:47.606Z,4.60
2018-06-21T09:57:15.922Z,4.50
2018-06-21T09:59:44.185Z,5.28
2018-06-21T10:02:12.535Z,4.92
2018-06-21T10:04:40.895Z,4.40
2018-06-21T10:07:09.171Z,4.35
2018-06-21T10:09:38.687Z,5.35
2018-06-21T10:12:07.332Z,6.08
2018-06-21T10:14:35.692Z,4.53
2018-06-21T10:17:06.641Z,4.10
2018-06-21T10:19:35.039Z,3.95
2018-06-21T10:22:03.421Z,4.75
2018-06-21T10:24:32.417Z,4.70
2018-06-21T10:27:00.771Z,5.20
2018-06-21T10:29:29.037Z,4.00
2018-06-21T10:31:57.460Z,5.85
2018-06-21T10:34:25.845Z,4.22
2018-06-21T10:36:54.058Z,4.42
2018-06-21T10:39:22.213Z,5.67
2018-06-21T10:41:51.003Z,4.05
2018-06-21T10:44:19.321Z,4.12
2018-06-21T10:46:47.535Z,4.10
2018-06-21T10:49:15.927Z,4.60
2018-06-21T10:51:44.047Z,3.58
2018-06-21T10:54:12.314Z,5.12
2018-06-21T10:56:41.426Z,3.70
2018-06-21T10:59:09.736Z,4.40
2018-06-21T11:01:38.037Z,4.95
2018-06-21T11:04:06.017Z,4.17
2018-06-21T11:06:34.126Z,4.20
2018-06-21T11:09:02.218Z,4.03
2018-06-21T11:11:30.619Z,3.80
2018-06-21T11:13:58.790Z,4.55
2018-06-21T11:16:27.686Z,5.50
2018-06-21T11:18:56.006Z,4.40
2018-06-21T11:21:24.340Z,4.30
2018-06-21T11:23:52.705Z,5.58
2018-06-21T11:26:21.180Z,3.83
2018-06-21T11:28:49.401Z,4.90
2018-06-21T11:31:17.501Z,4.20
2018-06-21T11:33:45.785Z,4.70
2018-06-21T11:36:14.088Z,6.45
2018-06-21T11:38:42.466Z,4.62
2018-06-21T11:41:10.599Z,6.00
2018-06-21T11:43:38.858Z,4.20
2018-06-21T11:46:08.298Z,5.08
2018-06-21T11:48:36.969Z,3.62
2018-06-21T11:51:05.413Z,5.92
2018-06-21T11:53:34.319Z,3.85
2018-06-21T11:56:02.819Z,7.15
2018-06-21T11:58:30.904Z,4.10
2018-06-21T12:00:59.226Z,4.25
2018-06-21T12:03:27.761Z,3.40
2018-06-21T12:05:56.544Z,4.20
2018-06-21T12:08:25.037Z,3.67
2018-06-21T12:10:53.425Z,6.10
2018-06-21T12:13:21.639Z,4.10
2018-06-21T12:15:49.983Z,3.25
2018-06-21T12:18:18.351Z,3.90
2018-06-21T12:20:46.952Z,3.60
2018-06-21T12:23:15.450Z,3.43
2018-06-21T12:25:43.668Z,3.10
2018-06-21T12:28:11.656Z,3.30
2018-06-21T12:30:39.790Z,4.37
2018-06-21T12:33:08.306Z,3.90
2018-06-21T12:35:37.231Z,5.42
2018-06-21T12:38:05.904Z,5.47
2018-06-21T12:40:34.106Z,4.17
2018-06-21T12:43:02.526Z,7.47
2018-06-21T12:45:31.020Z,5.47
2018-06-21T12:47:59.016Z,5.60
2018-06-21T12:50:27.366Z,7.53
2018-06-21T12:52:55.604Z,14.78
2018-06-21T12:55:23.915Z,11.50
2018-06-21T12:57:52.214Z,8.73
2018-06-21T13:00:20.694Z,8.13
2018-06-21T13:02:48.946Z,11.73
2018-06-21T13:05:17.355Z,5.50
2018-06-21T13:07:45.914Z,8.88
2018-06-21T13:10:26.087Z,10.10
2018-06-21T13:13:11.332Z,10.85
2018-06-21T13:15:39.689Z,5.30
2018-06-21T13:18:08.064Z,5.30
2018-06-21T13:20:36.417Z,5.37
2018-06-21T13:23:04.846Z,6.37
2018-06-21T13:25:33.248Z,5.65
2018-06-21T13:28:01.743Z,4.40
2018-06-21T13:30:30.484Z,6.08
2018-06-21T13:32:58.866Z,5.22
2018-06-21T13:35:27.538Z,5.03
2018-06-21T13:37:56.265Z,2.98
2018-06-21T13:40:24.753Z,6.30
2018-06-21T13:42:52.851Z,4.10
2018-06-21T13:45:21.159Z,3.72
2018-06-21T13:47:49.564Z,2.70
2018-06-21T13:50:18.470Z,4.60
2018-06-21T13:52:46.860Z,4.60
2018-06-21T13:55:15.041Z,3.65
2018-06-21T13:57:43.699Z,4.53
2018-06-21T14:00:11.947Z,3.87
2018-06-21T14:02:40.932Z,3.85
2018-06-21T14:05:09.447Z,4.35
2018-06-21T14:07:37.797Z,5.55
2018-06-21T14:10:06.302Z,3.90
2018-06-21T14:12:34.781Z,4.67
2018-06-21T14:15:03.263Z,3.80
2018-06-21T14:17:31.258Z,4.70
2018-06-21T14:19:59.666Z,3.77
2018-06-21T14:22:27.886Z,3.90
2018-06-21T14:24:56.479Z,4.10
2018-06-21T14:27:24.539Z,3.93
2018-06-21T14:29:52.339Z,4.12
2018-06-21T14:32:20.443Z,4.50
2018-06-21T14:34:48.741Z,4.20
2018-06-21T14:37:17.231Z,4.00
2018-06-21T14:39:45.533Z,4.40
2018-06-21T14:42:13.819Z,4.67
2018-06-21T14:44:41.932Z,4.80
2018-06-21T14:47:10.102Z,5.33
2018-06-21T14:49:38.626Z,4.12
2018-06-21T14:52:07.133Z,4.40
2018-06-21T14:54:35.633Z,4.83
2018-06-21T14:57:03.823Z,4.60
2018-06-21T14:59:31.803Z,5.20
2018-06-21T15:02:00.013Z,5.40
2018-06-21T15:04:28.802Z,5.08
2018-06-21T15:06:57.113Z,5.70
2018-06-21T15:09:25.524Z,6.93
2018-06-21T15:11:54.031Z,5.65
2018-06-21T15:14:22.843Z,8.55
2018-06-21T15:16:51.004Z,6.80
2018-06-21T15:19:19.432Z,6.90
2018-06-21T15:21:47.825Z,6.73
2018-06-21T15:24:15.917Z,6.72
2018-06-21T15:26:44.401Z,6.40
2018-06-21T15:29:12.716Z,6.90
2018-06-21T15:31:41.089Z,7.20
2018-06-21T15:34:09.618Z,7.25
2018-06-21T15:36:38.099Z,7.50
2018-06-21T15:39:18.275Z,7.92
2018-06-21T15:41:46.769Z,7.60
2018-06-21T15:44:15.726Z,7.70
2018-06-21T15:46:44.061Z,8.40
2018-06-21T15:49:12.856Z,8.48
2018-06-21T15:51:42.018Z,9.18
2018-06-21T15:54:10.682Z,9.80
2018-06-21T15:56:39.022Z,10.00
2018-06-21T15:59:08.034Z,11.40
2018-06-21T16:01:36.542Z,9.83
2018-06-21T16:04:05.645Z,10.33
2018-06-21T16:06:34.533Z,10.30
2018-06-21T16:09:03.035Z,10.23
2018-06-21T16:11:30.941Z,10.10
2018-06-21T16:13:59.480Z,10.70
2018-06-21T16:16:27.844Z,10.88
2018-06-21T16:18:56.165Z,10.60
2018-06-21T16:21:24.530Z,9.98
2018-06-21T16:23:52.936Z,8.60
2018-06-21T16:26:21.216Z,8.43
2018-06-21T16:28:49.526Z,8.80
2018-06-21T16:31:17.724Z,7.53
2018-06-21T16:33:46.069Z,8.80
2018-06-21T16:36:14.440Z,8.08
2018-06-21T16:38:43.588Z,8.67
2018-06-21T16:41:12.756Z,6.95
2018-06-21T16:43:41.297Z,6.33
2018-06-21T16:46:09.468Z,7.00
2018-06-21T16:48:37.747Z,6.90
2018-06-21T16:51:06.424Z,6.60
2018-06-21T16:53:34.627Z,6.50
2018-06-21T16:56:02.944Z,5.97
2018-06-21T16:58:31.569Z,6.37
2018-06-21T17:00:59.888Z,5.75
2018-06-21T17:03:28.366Z,5.97
2018-06-21T17:05:56.978Z,5.65
2018-06-21T17:08:25.254Z,6.03
2018-06-21T17:10:53.358Z,5.90
2018-06-21T17:13:21.365Z,6.50
2018-06-21T17:15:49.878Z,6.00
2018-06-21T17:18:18.139Z,5.77
2018-06-21T17:20:46.247Z,6.10
2018-06-21T17:23:14.203Z,5.85
2018-06-21T17:25:42.562Z,7.22
2018-06-21T17:28:10.752Z,6.30
2018-06-21T17:30:38.788Z,8.28
2018-06-21T17:33:07.150Z,6.10
2018-06-21T17:35:36.071Z,6.35
2018-06-21T17:38:04.410Z,6.72
2018-06-21T17:40:32.929Z,6.35
2018-06-21T17:43:01.433Z,5.97
2018-06-21T17:45:29.686Z,6.00
2018-06-21T17:47:58.042Z,6.40
2018-06-21T17:50:27.012Z,8.45
2018-06-21T17:52:55.658Z,6.58
2018-06-21T17:55:24.166Z,6.00
2018-06-21T17:57:54.277Z,6.25
2018-06-21T18:00:22.177Z,5.90
2018-06-21T18:02:50.557Z,6.10
2018-06-21T18:05:18.930Z,5.63
2018-06-21T18:07:47.492Z,6.05
2018-06-21T18:10:15.671Z,4.80
2018-06-21T18:12:44.271Z,6.35
2018-06-21T18:15:12.779Z,5.28
2018-06-21T18:17:41.515Z,9.50
2018-06-21T18:20:09.697Z,5.37
2018-06-21T18:22:38.190Z,5.40
2018-06-21T18:25:06.672Z,4.37
2018-06-21T18:27:34.986Z,5.40
2018-06-21T18:30:03.711Z,3.62
2018-06-21T18:32:32.573Z,3.60
2018-06-21T18:35:01.647Z,3.67
2018-06-21T18:37:29.935Z,2.98
2018-06-21T18:40:00.049Z,3.37
2018-06-21T18:42:28.735Z,3.00
2018-06-21T18:44:57.214Z,3.60
2018-06-21T18:47:26.135Z,3.20
2018-06-21T18:49:54.468Z,4.62
2018-06-21T18:52:22.958Z,3.55
2018-06-21T18:54:52.084Z,2.22
2018-06-21T18:57:22.684Z,5.60
2018-06-21T18:59:51.949Z,5.55
2018-06-21T19:02:21.070Z,3.65
2018-06-21T19:04:49.535Z,4.72
2018-06-21T19:07:32.386Z,3.20
2018-06-21T19:10:06.824Z,2.13
2018-06-21T19:12:35.567Z,5.42
2018-06-21T19:15:07.888Z,4.97
2018-06-21T19:17:36.680Z,3.33
2018-06-21T19:20:05.230Z,5.00
2018-06-21T19:22:37.921Z,4.25
2018-06-21T19:25:08.133Z,5.55
2018-06-21T19:27:37.370Z,2.65
2018-06-21T19:30:05.919Z,6.08
2018-06-21T19:32:34.485Z,3.55
2018-06-21T19:35:03.292Z,4.90
2018-06-21T19:37:31.796Z,4.85
2018-06-21T19:40:01.675Z,4.37
2018-06-21T19:42:32.162Z,3.70
2018-06-21T19:45:01.202Z,4.00
2018-06-21T19:47:29.714Z,4.47
2018-06-21T19:49:57.984Z,6.12
2018-06-21T19:52:26.242Z,4.10
2018-06-21T19:54:55.458Z,3.72
2018-06-21T19:57:23.904Z,3.30
2018-06-21T19:59:52.209Z,4.05
2018-06-21T20:02:20.893Z,3.20
2018-06-21T20:04:49.101Z,3.40
2018-06-21T20:07:18.306Z,3.10
2018-06-21T20:09:46.931Z,4.20
2018-06-21T20:12:15.216Z,2.62
2018-06-21T20:14:43.299Z,2.50
2018-06-21T20:17:12.184Z,2.45
2018-06-21T20:19:45.932Z,3.17
2018-06-21T20:22:14.243Z,2.02
2018-06-21T20:24:42.652Z,2.20
2018-06-21T20:27:11.089Z,4.20
2018-06-21T20:29:39.917Z,3.27
2018-06-21T20:32:08.229Z,3.03
2018-06-21T20:34:36.443Z,2.25
2018-06-21T20:37:10.381Z,5.70
2018-06-21T20:39:38.894Z,5.50
2018-06-21T20:42:08.008Z,3.15
2018-06-21T20:44:36.572Z,3.10
2018-06-21T20:47:04.770Z,3.37
2018-06-21T20:49:33.168Z,4.22
2018-06-21T20:52:01.670Z,2.97
2018-06-21T20:54:30.618Z,2.70
2018-06-21T20:57:00.142Z,2.92
2018-06-21T20:59:28.640Z,3.30
2018-06-21T21:01:56.794Z,1.85
2018-06-21T21:04:26.852Z,4.30
2018-06-21T21:09:22.951Z,1.82
2018-06-21T21:11:51.224Z,2.50
2018-06-21T21:14:19.499Z,4.20
2018-06-21T21:16:47.728Z,4.10
2018-06-21T21:19:15.894Z,1.87
2018-06-21T21:21:44.424Z,2.90
2018-06-21T21:24:12.804Z,2.45
2018-06-21T21:26:40.917Z,3.30
2018-06-21T21:29:09.151Z,2.85
2018-06-21T21:31:37.560Z,4.30
2018-06-21T21:34:05.892Z,4.47
2018-06-21T21:36:34.210Z,2.62
2018-06-21T21:39:02.192Z,2.02
2018-06-21T21:41:30.394Z,2.87
2018-06-21T21:43:58.704Z,2.35
2018-06-21T21:46:26.779Z,4.17
2018-06-21T21:48:54.655Z,3.60
2018-06-21T21:51:22.875Z,4.03
2018-06-21T21:53:51.234Z,3.10
2018-06-21T21:56:19.676Z,3.25
2018-06-21T21:58:47.946Z,3.70
2018-06-21T22:01:16.359Z,2.70
2018-06-21T22:03:44.845Z,3.70
2018-06-21T22:06:13.274Z,2.60
